sensor_id;sensor_type;location;lat;lon;timestamp;P1;durP1;ratioP1;P2;durP2;ratioP2
11582;SDS011;34299;50.820;4.548;2023-04-30T00:02:10;17.80;;;11.17;;
11582;SDS011;34299;50.820;4.548;2023-04-30T00:04:39;24.57;;;12.80;;
11582;SDS011;34299;50.820;4.548;2023-04-30T00:07:06;22.33;;;11.53;;
11582;SDS011;34299;50.820;4.548;2023-04-30T00:09:33;18.00;;;9.73;;
11582;SDS011;34299;50.820;4.548;2023-04-30T00:12:00;20.23;;;11.83;;
11582;SDS011;34299;50.820;4.548;2023-04-30T00:14:26;23.70;;;13.13;;
11582;SDS011;34299;50.820;4.548;2023-04-30T00:16:53;20.83;;;11.27;;
11582;SDS011;34299;50.820;4.548;2023-04-30T00:19:20;21.37;;;11.97;;
11582;SDS011;34299;50.820;4.548;2023-04-30T00:21:49;19.53;;;11.40;;
11582;SDS011;34299;50.820;4.548;2023-04-30T00:24:16;20.30;;;12.43;;
11582;SDS011;34299;50.820;4.548;2023-04-30T00:26:42;21.23;;;9.93;;
11582;SDS011;34299;50.820;4.548;2023-04-30T00:29:09;18.67;;;10.47;;
11582;SDS011;34299;50.820;4.548;2023-04-30T00:31:36;22.13;;;12.07;;
11582;SDS011;34299;50.820;4.548;2023-04-30T00:34:03;19.40;;;10.73;;
11582;SDS011;34299;50.820;4.548;2023-04-30T00:36:30;25.87;;;15.37;;
11582;SDS011;34299;50.820;4.548;2023-04-30T00:38:59;26.40;;;15.60;;
11582;SDS011;34299;50.820;4.548;2023-04-30T00:41:26;22.53;;;14.73;;
11582;SDS011;34299;50.820;4.548;2023-04-30T00:43:53;27.37;;;16.70;;
11582;SDS011;34299;50.820;4.548;2023-04-30T00:46:20;27.10;;;17.37;;
11582;SDS011;34299;50.820;4.548;2023-04-30T00:48:47;27.60;;;17.17;;
11582;SDS011;34299;50.820;4.548;2023-04-30T00:51:15;25.97;;;16.83;;
11582;SDS011;34299;50.820;4.548;2023-04-30T00:53:42;25.23;;;16.10;;
11582;SDS011;34299;50.820;4.548;2023-04-30T00:56:10;24.77;;;15.37;;
11582;SDS011;34299;50.820;4.548;2023-04-30T00:58:40;23.43;;;14.83;;
11582;SDS011;34299;50.820;4.548;2023-04-30T01:01:07;23.57;;;15.33;;
11582;SDS011;34299;50.820;4.548;2023-04-30T01:03:35;26.33;;;15.57;;
11582;SDS011;34299;50.820;4.548;2023-04-30T01:06:02;24.87;;;15.87;;
11582;SDS011;34299;50.820;4.548;2023-04-30T01:08:29;23.40;;;15.57;;
11582;SDS011;34299;50.820;4.548;2023-04-30T01:11:03;23.47;;;15.40;;
11582;SDS011;34299;50.820;4.548;2023-04-30T01:13:44;26.73;;;15.17;;
11582;SDS011;34299;50.820;4.548;2023-04-30T01:16:19;26.90;;;15.77;;
11582;SDS011;34299;50.820;4.548;2023-04-30T01:18:51;25.30;;;14.37;;
11582;SDS011;34299;50.820;4.548;2023-04-30T01:21:21;24.23;;;16.33;;
11582;SDS011;34299;50.820;4.548;2023-04-30T01:26:58;23.57;;;14.43;;
11582;SDS011;34299;50.820;4.548;2023-04-30T01:29:33;23.60;;;15.47;;
11582;SDS011;34299;50.820;4.548;2023-04-30T01:32:01;22.90;;;14.93;;
11582;SDS011;34299;50.820;4.548;2023-04-30T01:34:28;24.77;;;14.77;;
11582;SDS011;34299;50.820;4.548;2023-04-30T01:37:02;25.37;;;15.23;;
11582;SDS011;34299;50.820;4.548;2023-04-30T01:39:44;24.53;;;15.53;;
11582;SDS011;34299;50.820;4.548;2023-04-30T01:42:23;25.10;;;15.47;;
11582;SDS011;34299;50.820;4.548;2023-04-30T01:45:06;24.70;;;14.77;;
11582;SDS011;34299;50.820;4.548;2023-04-30T01:47:45;20.53;;;14.17;;
11582;SDS011;34299;50.820;4.548;2023-04-30T01:50:19;24.30;;;15.33;;
11582;SDS011;34299;50.820;4.548;2023-04-30T01:52:54;25.77;;;14.67;;
11582;SDS011;34299;50.820;4.548;2023-04-30T01:55:26;23.43;;;14.87;;
11582;SDS011;34299;50.820;4.548;2023-04-30T01:57:58;25.90;;;15.43;;
11582;SDS011;34299;50.820;4.548;2023-04-30T02:00:28;19.87;;;13.07;;
11582;SDS011;34299;50.820;4.548;2023-04-30T02:02:55;19.97;;;13.30;;
11582;SDS011;34299;50.820;4.548;2023-04-30T02:05:22;25.00;;;14.17;;
11582;SDS011;34299;50.820;4.548;2023-04-30T02:07:50;22.30;;;13.30;;
11582;SDS011;34299;50.820;4.548;2023-04-30T02:10:18;19.80;;;13.70;;
11582;SDS011;34299;50.820;4.548;2023-04-30T02:12:46;20.67;;;12.10;;
11582;SDS011;34299;50.820;4.548;2023-04-30T02:15:13;19.23;;;11.93;;
11582;SDS011;34299;50.820;4.548;2023-04-30T02:17:41;18.43;;;11.93;;
11582;SDS011;34299;50.820;4.548;2023-04-30T02:20:09;18.40;;;11.90;;
11582;SDS011;34299;50.820;4.548;2023-04-30T02:22:36;19.80;;;12.40;;
11582;SDS011;34299;50.820;4.548;2023-04-30T02:25:03;21.47;;;12.67;;
11582;SDS011;34299;50.820;4.548;2023-04-30T02:27:31;19.07;;;12.13;;
11582;SDS011;34299;50.820;4.548;2023-04-30T02:29:59;22.13;;;12.87;;
11582;SDS011;34299;50.820;4.548;2023-04-30T02:32:26;21.83;;;13.17;;
11582;SDS011;34299;50.820;4.548;2023-04-30T02:34:55;19.33;;;12.77;;
11582;SDS011;34299;50.820;4.548;2023-04-30T02:37:22;21.13;;;12.57;;
11582;SDS011;34299;50.820;4.548;2023-04-30T02:39:49;20.23;;;11.70;;
11582;SDS011;34299;50.820;4.548;2023-04-30T02:42:16;18.07;;;12.07;;
11582;SDS011;34299;50.820;4.548;2023-04-30T02:44:43;18.17;;;11.60;;
11582;SDS011;34299;50.820;4.548;2023-04-30T02:47:10;21.77;;;12.90;;
11582;SDS011;34299;50.820;4.548;2023-04-30T02:49:37;21.60;;;12.03;;
11582;SDS011;34299;50.820;4.548;2023-04-30T02:52:06;17.53;;;11.80;;
11582;SDS011;34299;50.820;4.548;2023-04-30T02:54:34;19.03;;;11.73;;
11582;SDS011;34299;50.820;4.548;2023-04-30T02:57:01;19.93;;;12.17;;
11582;SDS011;34299;50.820;4.548;2023-04-30T02:59:28;16.83;;;11.67;;
11582;SDS011;34299;50.820;4.548;2023-04-30T03:01:55;20.27;;;11.17;;
11582;SDS011;34299;50.820;4.548;2023-04-30T03:04:22;19.20;;;11.37;;
11582;SDS011;34299;50.820;4.548;2023-04-30T03:06:51;16.23;;;11.50;;
11582;SDS011;34299;50.820;4.548;2023-04-30T03:09:20;21.07;;;12.27;;
11582;SDS011;34299;50.820;4.548;2023-04-30T03:11:47;17.70;;;11.30;;
11582;SDS011;34299;50.820;4.548;2023-04-30T03:14:14;18.97;;;11.30;;
11582;SDS011;34299;50.820;4.548;2023-04-30T03:16:41;14.83;;;11.17;;
11582;SDS011;34299;50.820;4.548;2023-04-30T03:19:07;20.43;;;12.60;;
11582;SDS011;34299;50.820;4.548;2023-04-30T03:21:34;18.50;;;11.80;;
11582;SDS011;34299;50.820;4.548;2023-04-30T03:24:01;17.97;;;11.20;;
11582;SDS011;34299;50.820;4.548;2023-04-30T03:26:30;18.50;;;10.97;;
11582;SDS011;34299;50.820;4.548;2023-04-30T03:28:57;18.80;;;12.00;;
11582;SDS011;34299;50.820;4.548;2023-04-30T03:31:25;21.17;;;12.53;;
11582;SDS011;34299;50.820;4.548;2023-04-30T03:33:52;18.30;;;12.17;;
11582;SDS011;34299;50.820;4.548;2023-04-30T03:36:19;23.60;;;12.63;;
11582;SDS011;34299;50.820;4.548;2023-04-30T03:38:46;16.67;;;11.17;;
11582;SDS011;34299;50.820;4.548;2023-04-30T03:41:13;17.60;;;11.57;;
11582;SDS011;34299;50.820;4.548;2023-04-30T03:43:41;14.60;;;9.77;;
11582;SDS011;34299;50.820;4.548;2023-04-30T03:46:08;18.73;;;11.13;;
11582;SDS011;34299;50.820;4.548;2023-04-30T03:48:35;16.10;;;10.03;;
11582;SDS011;34299;50.820;4.548;2023-04-30T03:51:02;19.03;;;10.57;;
11582;SDS011;34299;50.820;4.548;2023-04-30T03:53:29;15.93;;;9.97;;
11582;SDS011;34299;50.820;4.548;2023-04-30T03:55:56;17.63;;;10.80;;
11582;SDS011;34299;50.820;4.548;2023-04-30T03:58:23;14.53;;;10.33;;
11582;SDS011;34299;50.820;4.548;2023-04-30T04:00:52;17.30;;;10.63;;
11582;SDS011;34299;50.820;4.548;2023-04-30T04:03:19;17.23;;;10.57;;
11582;SDS011;34299;50.820;4.548;2023-04-30T04:05:46;17.63;;;10.30;;
11582;SDS011;34299;50.820;4.548;2023-04-30T04:08:13;19.70;;;10.73;;
11582;SDS011;34299;50.820;4.548;2023-04-30T04:10:39;17.37;;;10.63;;
11582;SDS011;34299;50.820;4.548;2023-04-30T04:13:06;18.23;;;9.80;;
11582;SDS011;34299;50.820;4.548;2023-04-30T04:15:33;19.17;;;10.53;;
11582;SDS011;34299;50.820;4.548;2023-04-30T04:18:02;15.03;;;10.10;;
11582;SDS011;34299;50.820;4.548;2023-04-30T04:20:31;17.27;;;10.00;;
11582;SDS011;34299;50.820;4.548;2023-04-30T04:22:57;14.47;;;10.03;;
11582;SDS011;34299;50.820;4.548;2023-04-30T04:25:25;13.63;;;10.03;;
11582;SDS011;34299;50.820;4.548;2023-04-30T04:27:52;19.03;;;11.00;;
11582;SDS011;34299;50.820;4.548;2023-04-30T04:30:19;18.60;;;10.43;;
11582;SDS011;34299;50.820;4.548;2023-04-30T04:32:46;14.40;;;9.07;;
11582;SDS011;34299;50.820;4.548;2023-04-30T04:35:16;24.90;;;9.20;;
11582;SDS011;34299;50.820;4.548;2023-04-30T04:37:43;13.70;;;10.00;;
11582;SDS011;34299;50.820;4.548;2023-04-30T04:40:10;15.93;;;10.53;;
11582;SDS011;34299;50.820;4.548;2023-04-30T04:42:38;15.80;;;9.27;;
11582;SDS011;34299;50.820;4.548;2023-04-30T04:45:05;13.47;;;8.87;;
11582;SDS011;34299;50.820;4.548;2023-04-30T04:47:33;8.57;;;5.23;;
11582;SDS011;34299;50.820;4.548;2023-04-30T04:50:00;10.87;;;5.93;;
11582;SDS011;34299;50.820;4.548;2023-04-30T04:52:29;7.43;;;5.30;;
11582;SDS011;34299;50.820;4.548;2023-04-30T04:54:56;9.30;;;6.17;;
11582;SDS011;34299;50.820;4.548;2023-04-30T04:57:23;9.00;;;5.90;;
11582;SDS011;34299;50.820;4.548;2023-04-30T04:59:49;8.60;;;6.07;;
11582;SDS011;34299;50.820;4.548;2023-04-30T05:02:16;10.57;;;6.23;;
11582;SDS011;34299;50.820;4.548;2023-04-30T05:04:44;14.07;;;6.87;;
11582;SDS011;34299;50.820;4.548;2023-04-30T05:07:14;9.00;;;6.10;;
11582;SDS011;34299;50.820;4.548;2023-04-30T05:09:44;14.33;;;6.97;;
11582;SDS011;34299;50.820;4.548;2023-04-30T05:12:11;6.17;;;5.37;;
11582;SDS011;34299;50.820;4.548;2023-04-30T05:14:38;10.40;;;5.77;;
11582;SDS011;34299;50.820;4.548;2023-04-30T05:17:05;12.70;;;6.80;;
11582;SDS011;34299;50.820;4.548;2023-04-30T05:19:32;16.37;;;7.33;;
11582;SDS011;34299;50.820;4.548;2023-04-30T05:21:59;8.87;;;6.10;;
11582;SDS011;34299;50.820;4.548;2023-04-30T05:24:26;10.60;;;6.57;;
11582;SDS011;34299;50.820;4.548;2023-04-30T05:26:55;11.23;;;6.40;;
11582;SDS011;34299;50.820;4.548;2023-04-30T05:29:22;15.17;;;6.73;;
11582;SDS011;34299;50.820;4.548;2023-04-30T05:31:49;11.03;;;5.67;;
11582;SDS011;34299;50.820;4.548;2023-04-30T05:34:16;11.77;;;6.53;;
11582;SDS011;34299;50.820;4.548;2023-04-30T05:36:43;13.30;;;7.03;;
11582;SDS011;34299;50.820;4.548;2023-04-30T05:39:10;12.07;;;7.30;;
11582;SDS011;34299;50.820;4.548;2023-04-30T05:41:38;16.53;;;7.93;;
11582;SDS011;34299;50.820;4.548;2023-04-30T05:44:06;12.70;;;7.63;;
11582;SDS011;34299;50.820;4.548;2023-04-30T05:46:33;10.50;;;6.37;;
11582;SDS011;34299;50.820;4.548;2023-04-30T05:49:00;11.07;;;6.83;;
11582;SDS011;34299;50.820;4.548;2023-04-30T05:51:27;14.87;;;7.77;;
11582;SDS011;34299;50.820;4.548;2023-04-30T05:53:55;13.77;;;7.47;;
11582;SDS011;34299;50.820;4.548;2023-04-30T05:56:22;15.57;;;8.97;;
11582;SDS011;34299;50.820;4.548;2023-04-30T05:58:50;11.30;;;7.23;;
11582;SDS011;34299;50.820;4.548;2023-04-30T06:01:19;12.47;;;8.10;;
11582;SDS011;34299;50.820;4.548;2023-04-30T06:03:47;17.77;;;9.30;;
11582;SDS011;34299;50.820;4.548;2023-04-30T06:06:14;13.10;;;8.57;;
11582;SDS011;34299;50.820;4.548;2023-04-30T06:08:41;16.67;;;9.03;;
11582;SDS011;34299;50.820;4.548;2023-04-30T06:11:10;16.37;;;10.27;;
11582;SDS011;34299;50.820;4.548;2023-04-30T06:13:37;20.90;;;11.37;;
11582;SDS011;34299;50.820;4.548;2023-04-30T06:16:05;18.83;;;11.93;;
11582;SDS011;34299;50.820;4.548;2023-04-30T06:18:34;25.07;;;13.70;;
11582;SDS011;34299;50.820;4.548;2023-04-30T06:21:01;20.10;;;12.13;;
11582;SDS011;34299;50.820;4.548;2023-04-30T06:23:28;22.57;;;14.37;;
11582;SDS011;34299;50.820;4.548;2023-04-30T06:25:55;26.63;;;14.13;;
11582;SDS011;34299;50.820;4.548;2023-04-30T06:28:23;21.07;;;14.40;;
11582;SDS011;34299;50.820;4.548;2023-04-30T06:30:50;24.93;;;14.30;;
11582;SDS011;34299;50.820;4.548;2023-04-30T06:33:18;26.03;;;15.70;;
11582;SDS011;34299;50.820;4.548;2023-04-30T06:35:47;25.80;;;15.00;;
11582;SDS011;34299;50.820;4.548;2023-04-30T06:38:15;23.80;;;15.57;;
11582;SDS011;34299;50.820;4.548;2023-04-30T06:40:43;27.07;;;15.90;;
11582;SDS011;34299;50.820;4.548;2023-04-30T06:43:10;27.00;;;15.63;;
11582;SDS011;34299;50.820;4.548;2023-04-30T06:45:37;27.80;;;14.27;;
11582;SDS011;34299;50.820;4.548;2023-04-30T06:48:04;27.13;;;16.10;;
11582;SDS011;34299;50.820;4.548;2023-04-30T06:50:32;23.73;;;15.37;;
11582;SDS011;34299;50.820;4.548;2023-04-30T06:53:00;30.47;;;18.17;;
11582;SDS011;34299;50.820;4.548;2023-04-30T06:55:28;27.50;;;17.43;;
11582;SDS011;34299;50.820;4.548;2023-04-30T06:57:55;29.83;;;18.33;;
11582;SDS011;34299;50.820;4.548;2023-04-30T07:00:22;29.83;;;16.70;;
11582;SDS011;34299;50.820;4.548;2023-04-30T07:02:50;30.47;;;18.63;;
11582;SDS011;34299;50.820;4.548;2023-04-30T07:05:17;29.90;;;17.20;;
11582;SDS011;34299;50.820;4.548;2023-04-30T07:07:44;27.83;;;16.77;;
11582;SDS011;34299;50.820;4.548;2023-04-30T07:10:13;30.43;;;18.40;;
11582;SDS011;34299;50.820;4.548;2023-04-30T07:12:41;34.60;;;19.20;;
11582;SDS011;34299;50.820;4.548;2023-04-30T07:15:08;33.07;;;19.10;;
11582;SDS011;34299;50.820;4.548;2023-04-30T07:17:36;28.97;;;18.37;;
11582;SDS011;34299;50.820;4.548;2023-04-30T07:20:04;29.40;;;19.33;;
11582;SDS011;34299;50.820;4.548;2023-04-30T07:22:31;31.40;;;16.53;;
11582;SDS011;34299;50.820;4.548;2023-04-30T07:24:58;25.13;;;16.13;;
11582;SDS011;34299;50.820;4.548;2023-04-30T07:27:27;25.23;;;15.70;;
11582;SDS011;34299;50.820;4.548;2023-04-30T07:29:54;25.20;;;14.53;;
11582;SDS011;34299;50.820;4.548;2023-04-30T07:32:22;19.60;;;14.07;;
11582;SDS011;34299;50.820;4.548;2023-04-30T07:34:51;23.93;;;14.17;;
11582;SDS011;34299;50.820;4.548;2023-04-30T07:37:18;22.23;;;15.17;;
11582;SDS011;34299;50.820;4.548;2023-04-30T07:39:46;20.73;;;13.23;;
11582;SDS011;34299;50.820;4.548;2023-04-30T07:42:13;21.10;;;14.07;;
11582;SDS011;34299;50.820;4.548;2023-04-30T07:44:41;22.13;;;14.17;;
11582;SDS011;34299;50.820;4.548;2023-04-30T07:47:09;23.27;;;14.43;;
11582;SDS011;34299;50.820;4.548;2023-04-30T07:49:36;23.37;;;13.40;;
11582;SDS011;34299;50.820;4.548;2023-04-30T07:52:03;20.93;;;15.33;;
11582;SDS011;34299;50.820;4.548;2023-04-30T07:54:32;20.43;;;14.20;;
11582;SDS011;34299;50.820;4.548;2023-04-30T07:57:01;22.33;;;14.43;;
11582;SDS011;34299;50.820;4.548;2023-04-30T07:59:28;19.23;;;13.30;;
11582;SDS011;34299;50.820;4.548;2023-04-30T08:01:57;19.23;;;14.10;;
11582;SDS011;34299;50.820;4.548;2023-04-30T08:04:24;23.07;;;14.73;;
11582;SDS011;34299;50.820;4.548;2023-04-30T08:06:52;20.77;;;14.27;;
11582;SDS011;34299;50.820;4.548;2023-04-30T08:09:19;20.83;;;14.27;;
11582;SDS011;34299;50.820;4.548;2023-04-30T08:11:46;20.80;;;13.93;;
11582;SDS011;34299;50.820;4.548;2023-04-30T08:14:13;18.30;;;13.47;;
11582;SDS011;34299;50.820;4.548;2023-04-30T08:16:40;16.27;;;12.63;;
11582;SDS011;34299;50.820;4.548;2023-04-30T08:19:09;21.03;;;13.43;;
11582;SDS011;34299;50.820;4.548;2023-04-30T08:21:36;19.30;;;12.93;;
11582;SDS011;34299;50.820;4.548;2023-04-30T08:24:03;21.37;;;12.97;;
11582;SDS011;34299;50.820;4.548;2023-04-30T08:26:31;18.20;;;12.27;;
11582;SDS011;34299;50.820;4.548;2023-04-30T08:28:58;18.40;;;12.67;;
11582;SDS011;34299;50.820;4.548;2023-04-30T08:31:25;16.47;;;11.70;;
11582;SDS011;34299;50.820;4.548;2023-04-30T08:33:52;16.23;;;11.33;;
11582;SDS011;34299;50.820;4.548;2023-04-30T08:36:21;18.23;;;12.60;;
11582;SDS011;34299;50.820;4.548;2023-04-30T08:38:48;20.13;;;12.60;;
11582;SDS011;34299;50.820;4.548;2023-04-30T08:41:15;18.20;;;12.23;;
11582;SDS011;34299;50.820;4.548;2023-04-30T08:43:43;18.50;;;11.83;;
11582;SDS011;34299;50.820;4.548;2023-04-30T08:46:11;14.87;;;10.67;;
11582;SDS011;34299;50.820;4.548;2023-04-30T08:48:38;15.97;;;10.17;;
11582;SDS011;34299;50.820;4.548;2023-04-30T08:51:06;15.47;;;10.07;;
11582;SDS011;34299;50.820;4.548;2023-04-30T08:53:35;10.93;;;9.13;;
11582;SDS011;34299;50.820;4.548;2023-04-30T08:56:03;11.97;;;8.70;;
11582;SDS011;34299;50.820;4.548;2023-04-30T08:58:31;13.93;;;8.70;;
11582;SDS011;34299;50.820;4.548;2023-04-30T09:00:58;12.83;;;8.87;;
11582;SDS011;34299;50.820;4.548;2023-04-30T09:03:25;12.70;;;8.70;;
11582;SDS011;34299;50.820;4.548;2023-04-30T09:05:53;12.30;;;8.40;;
11582;SDS011;34299;50.820;4.548;2023-04-30T09:11:05;10.40;;;6.67;;
11582;SDS011;34299;50.820;4.548;2023-04-30T09:13:45;10.33;;;6.43;;
11582;SDS011;34299;50.820;4.548;2023-04-30T09:16:13;9.17;;;7.07;;
11582;SDS011;34299;50.820;4.548;2023-04-30T09:18:40;12.07;;;6.83;;
11582;SDS011;34299;50.820;4.548;2023-04-30T09:21:07;12.17;;;6.90;;
11582;SDS011;34299;50.820;4.548;2023-04-30T09:23:35;10.67;;;7.70;;
11582;SDS011;34299;50.820;4.548;2023-04-30T09:26:02;10.07;;;7.13;;
11582;SDS011;34299;50.820;4.548;2023-04-30T09:28:30;12.67;;;8.10;;
11582;SDS011;34299;50.820;4.548;2023-04-30T09:30:58;8.83;;;6.37;;
11582;SDS011;34299;50.820;4.548;2023-04-30T09:33:25;9.97;;;7.17;;
11582;SDS011;34299;50.820;4.548;2023-04-30T09:35:52;8.60;;;5.80;;
11582;SDS011;34299;50.820;4.548;2023-04-30T09:38:25;8.17;;;6.00;;
11582;SDS011;34299;50.820;4.548;2023-04-30T09:40:53;8.83;;;6.40;;
11582;SDS011;34299;50.820;4.548;2023-04-30T09:43:20;9.27;;;6.40;;
11582;SDS011;34299;50.820;4.548;2023-04-30T09:45:50;6.63;;;5.13;;
11582;SDS011;34299;50.820;4.548;2023-04-30T09:48:19;7.30;;;4.93;;
11582;SDS011;34299;50.820;4.548;2023-04-30T09:50:47;9.10;;;5.63;;
11582;SDS011;34299;50.820;4.548;2023-04-30T09:53:14;8.53;;;6.13;;
11582;SDS011;34299;50.820;4.548;2023-04-30T09:55:43;7.67;;;5.47;;
11582;SDS011;34299;50.820;4.548;2023-04-30T09:58:11;8.20;;;5.47;;
11582;SDS011;34299;50.820;4.548;2023-04-30T10:00:38;6.60;;;5.07;;
11582;SDS011;34299;50.820;4.548;2023-04-30T10:03:07;7.63;;;4.90;;
11582;SDS011;34299;50.820;4.548;2023-04-30T10:05:35;7.13;;;4.70;;
11582;SDS011;34299;50.820;4.548;2023-04-30T10:08:05;6.73;;;5.20;;
11582;SDS011;34299;50.820;4.548;2023-04-30T10:10:33;7.17;;;5.30;;
11582;SDS011;34299;50.820;4.548;2023-04-30T10:13:02;6.17;;;4.50;;
11582;SDS011;34299;50.820;4.548;2023-04-30T10:15:31;8.43;;;5.27;;
11582;SDS011;34299;50.820;4.548;2023-04-30T10:18:00;6.87;;;5.17;;
11582;SDS011;34299;50.820;4.548;2023-04-30T10:20:30;9.60;;;6.27;;
11582;SDS011;34299;50.820;4.548;2023-04-30T10:22:57;5.87;;;4.33;;
11582;SDS011;34299;50.820;4.548;2023-04-30T10:25:26;4.47;;;3.63;;
11582;SDS011;34299;50.820;4.548;2023-04-30T10:27:53;6.40;;;4.20;;
11582;SDS011;34299;50.820;4.548;2023-04-30T10:30:21;7.07;;;4.67;;
11582;SDS011;34299;50.820;4.548;2023-04-30T10:32:50;5.43;;;3.90;;
11582;SDS011;34299;50.820;4.548;2023-04-30T10:35:21;4.70;;;3.60;;
11582;SDS011;34299;50.820;4.548;2023-04-30T10:37:52;6.93;;;4.40;;
11582;SDS011;34299;50.820;4.548;2023-04-30T10:40:20;6.67;;;4.57;;
11582;SDS011;34299;50.820;4.548;2023-04-30T10:42:48;5.93;;;4.73;;
11582;SDS011;34299;50.820;4.548;2023-04-30T10:45:15;6.83;;;4.63;;
11582;SDS011;34299;50.820;4.548;2023-04-30T10:47:44;9.20;;;4.37;;
11582;SDS011;34299;50.820;4.548;2023-04-30T10:50:11;5.60;;;3.73;;
11582;SDS011;34299;50.820;4.548;2023-04-30T10:52:38;5.03;;;3.70;;
11582;SDS011;34299;50.820;4.548;2023-04-30T10:55:07;4.43;;;3.80;;
11582;SDS011;34299;50.820;4.548;2023-04-30T10:57:41;5.53;;;4.30;;
11582;SDS011;34299;50.820;4.548;2023-04-30T11:00:17;6.13;;;5.10;;
11582;SDS011;34299;50.820;4.548;2023-04-30T11:02:45;7.30;;;5.10;;
11582;SDS011;34299;50.820;4.548;2023-04-30T11:05:14;6.53;;;3.67;;
11582;SDS011;34299;50.820;4.548;2023-04-30T11:07:46;5.83;;;4.60;;
11582;SDS011;34299;50.820;4.548;2023-04-30T11:10:15;4.80;;;4.20;;
11582;SDS011;34299;50.820;4.548;2023-04-30T11:12:46;8.83;;;4.73;;
11582;SDS011;34299;50.820;4.548;2023-04-30T11:15:14;5.57;;;4.70;;
11582;SDS011;34299;50.820;4.548;2023-04-30T11:17:44;4.60;;;4.00;;
11582;SDS011;34299;50.820;4.548;2023-04-30T11:20:11;5.63;;;4.23;;
11582;SDS011;34299;50.820;4.548;2023-04-30T11:22:39;5.43;;;4.50;;
11582;SDS011;34299;50.820;4.548;2023-04-30T11:25:07;5.80;;;4.33;;
11582;SDS011;34299;50.820;4.548;2023-04-30T11:27:39;5.10;;;4.00;;
11582;SDS011;34299;50.820;4.548;2023-04-30T11:30:11;6.27;;;4.60;;
11582;SDS011;34299;50.820;4.548;2023-04-30T11:32:39;9.43;;;4.70;;
11582;SDS011;34299;50.820;4.548;2023-04-30T11:35:07;4.50;;;3.93;;
11582;SDS011;34299;50.820;4.548;2023-04-30T11:37:35;5.27;;;4.70;;
11582;SDS011;34299;50.820;4.548;2023-04-30T11:40:03;5.30;;;4.50;;
11582;SDS011;34299;50.820;4.548;2023-04-30T11:42:30;5.37;;;4.20;;
11582;SDS011;34299;50.820;4.548;2023-04-30T11:45:05;5.77;;;3.73;;
11582;SDS011;34299;50.820;4.548;2023-04-30T11:47:42;5.30;;;3.77;;
11582;SDS011;34299;50.820;4.548;2023-04-30T11:50:10;5.13;;;4.07;;
11582;SDS011;34299;50.820;4.548;2023-04-30T11:52:37;4.40;;;3.87;;
11582;SDS011;34299;50.820;4.548;2023-04-30T11:55:05;4.70;;;4.13;;
11582;SDS011;34299;50.820;4.548;2023-04-30T11:57:33;5.30;;;3.63;;
11582;SDS011;34299;50.820;4.548;2023-04-30T12:00:08;4.27;;;3.73;;
11582;SDS011;34299;50.820;4.548;2023-04-30T12:02:35;6.47;;;4.17;;
11582;SDS011;34299;50.820;4.548;2023-04-30T12:05:03;4.50;;;3.17;;
11582;SDS011;34299;50.820;4.548;2023-04-30T12:07:30;5.10;;;3.80;;
11582;SDS011;34299;50.820;4.548;2023-04-30T12:09:58;5.73;;;4.00;;
11582;SDS011;34299;50.820;4.548;2023-04-30T12:12:25;3.97;;;3.53;;
11582;SDS011;34299;50.820;4.548;2023-04-30T12:14:53;4.53;;;3.10;;
11582;SDS011;34299;50.820;4.548;2023-04-30T12:17:30;3.70;;;3.07;;
11582;SDS011;34299;50.820;4.548;2023-04-30T12:19:58;4.07;;;3.30;;
11582;SDS011;34299;50.820;4.548;2023-04-30T12:22:25;4.07;;;3.43;;
11582;SDS011;34299;50.820;4.548;2023-04-30T12:24:53;7.20;;;3.77;;
11582;SDS011;34299;50.820;4.548;2023-04-30T12:27:20;4.13;;;3.00;;
11582;SDS011;34299;50.820;4.548;2023-04-30T12:29:48;4.53;;;2.50;;
11582;SDS011;34299;50.820;4.548;2023-04-30T12:32:19;3.73;;;3.13;;
11582;SDS011;34299;50.820;4.548;2023-04-30T12:34:48;4.00;;;3.47;;
11582;SDS011;34299;50.820;4.548;2023-04-30T12:37:15;3.50;;;3.20;;
11582;SDS011;34299;50.820;4.548;2023-04-30T12:39:43;4.03;;;2.47;;
11582;SDS011;34299;50.820;4.548;2023-04-30T12:42:11;3.30;;;3.00;;
11582;SDS011;34299;50.820;4.548;2023-04-30T12:44:41;5.13;;;2.60;;
11582;SDS011;34299;50.820;4.548;2023-04-30T12:47:09;5.13;;;2.97;;
11582;SDS011;34299;50.820;4.548;2023-04-30T12:49:38;3.10;;;2.80;;
11582;SDS011;34299;50.820;4.548;2023-04-30T12:52:08;3.03;;;2.40;;
11582;SDS011;34299;50.820;4.548;2023-04-30T12:54:36;2.67;;;2.30;;
11582;SDS011;34299;50.820;4.548;2023-04-30T12:57:04;2.13;;;1.93;;
11582;SDS011;34299;50.820;4.548;2023-04-30T12:59:33;3.47;;;2.00;;
11582;SDS011;34299;50.820;4.548;2023-04-30T13:02:10;3.10;;;2.27;;
11582;SDS011;34299;50.820;4.548;2023-04-30T13:04:38;2.30;;;1.80;;
11582;SDS011;34299;50.820;4.548;2023-04-30T13:07:05;3.47;;;2.87;;
11582;SDS011;34299;50.820;4.548;2023-04-30T13:09:34;2.93;;;2.40;;
11582;SDS011;34299;50.820;4.548;2023-04-30T13:12:01;2.93;;;2.23;;
11582;SDS011;34299;50.820;4.548;2023-04-30T13:14:29;2.63;;;2.13;;
11582;SDS011;34299;50.820;4.548;2023-04-30T13:16:56;2.63;;;2.27;;
11582;SDS011;34299;50.820;4.548;2023-04-30T13:19:24;3.03;;;2.47;;
11582;SDS011;34299;50.820;4.548;2023-04-30T13:21:51;2.20;;;2.00;;
11582;SDS011;34299;50.820;4.548;2023-04-30T13:24:18;2.50;;;2.10;;
11582;SDS011;34299;50.820;4.548;2023-04-30T13:26:47;2.70;;;2.50;;
11582;SDS011;34299;50.820;4.548;2023-04-30T13:29:14;3.73;;;2.97;;
11582;SDS011;34299;50.820;4.548;2023-04-30T13:31:41;4.77;;;2.80;;
11582;SDS011;34299;50.820;4.548;2023-04-30T13:34:09;2.93;;;2.60;;
11582;SDS011;34299;50.820;4.548;2023-04-30T13:36:36;3.57;;;2.97;;
11582;SDS011;34299;50.820;4.548;2023-04-30T13:39:03;4.43;;;2.60;;
11582;SDS011;34299;50.820;4.548;2023-04-30T13:41:31;2.80;;;2.50;;
11582;SDS011;34299;50.820;4.548;2023-04-30T13:44:00;3.23;;;2.83;;
11582;SDS011;34299;50.820;4.548;2023-04-30T13:46:27;3.37;;;2.53;;
11582;SDS011;34299;50.820;4.548;2023-04-30T13:48:54;3.00;;;2.70;;
11582;SDS011;34299;50.820;4.548;2023-04-30T13:51:21;2.97;;;2.57;;
11582;SDS011;34299;50.820;4.548;2023-04-30T13:53:49;3.90;;;2.80;;
11582;SDS011;34299;50.820;4.548;2023-04-30T13:56:16;3.73;;;2.47;;
11582;SDS011;34299;50.820;4.548;2023-04-30T13:58:44;3.07;;;2.30;;
11582;SDS011;34299;50.820;4.548;2023-04-30T14:01:13;4.63;;;2.40;;
11582;SDS011;34299;50.820;4.548;2023-04-30T14:03:40;1.90;;;1.80;;
11582;SDS011;34299;50.820;4.548;2023-04-30T14:06:07;2.73;;;2.30;;
11582;SDS011;34299;50.820;4.548;2023-04-30T14:08:34;2.93;;;2.17;;
11582;SDS011;34299;50.820;4.548;2023-04-30T14:11:01;3.73;;;2.27;;
11582;SDS011;34299;50.820;4.548;2023-04-30T14:13:29;2.40;;;2.10;;
11582;SDS011;34299;50.820;4.548;2023-04-30T14:15:56;2.53;;;1.90;;
11582;SDS011;34299;50.820;4.548;2023-04-30T14:18:24;2.20;;;2.00;;
11582;SDS011;34299;50.820;4.548;2023-04-30T14:20:52;2.00;;;1.77;;
11582;SDS011;34299;50.820;4.548;2023-04-30T14:23:19;3.60;;;1.90;;
11582;SDS011;34299;50.820;4.548;2023-04-30T14:25:48;2.20;;;2.00;;
11582;SDS011;34299;50.820;4.548;2023-04-30T14:28:16;3.70;;;2.40;;
11582;SDS011;34299;50.820;4.548;2023-04-30T14:30:43;2.23;;;2.00;;
11582;SDS011;34299;50.820;4.548;2023-04-30T14:33:10;2.27;;;1.97;;
11582;SDS011;34299;50.820;4.548;2023-04-30T14:35:40;2.03;;;1.80;;
11582;SDS011;34299;50.820;4.548;2023-04-30T14:38:07;2.67;;;2.40;;
11582;SDS011;34299;50.820;4.548;2023-04-30T14:40:34;2.10;;;1.90;;
11582;SDS011;34299;50.820;4.548;2023-04-30T14:43:01;2.97;;;2.20;;
11582;SDS011;34299;50.820;4.548;2023-04-30T14:45:29;3.43;;;2.10;;